sensor_id;sensor_type;location;lat;lon;timestamp;temperature;humidity
18721;DHT22;9489;50.948;3.114;2024-03-23T00:54:38;8.70;99.90
18721;DHT22;9489;50.948;3.114;2024-03-23T00:57:04;8.60;99.90
18721;DHT22;9489;50.948;3.114;2024-03-23T00:59:30;8.70;99.90
18721;DHT22;9489;50.948;3.114;2024-03-23T01:01:56;8.70;99.90
18721;DHT22;9489;50.948;3.114;2024-03-23T01:04:22;8.70;99.90
18721;DHT22;9489;50.948;3.114;2024-03-23T01:06:48;8.70;99.90
18721;DHT22;9489;50.948;3.114;2024-03-23T01:09:13;8.70;99.90
18721;DHT22;9489;50.948;3.114;2024-03-23T01:11:39;8.70;99.90
18721;DHT22;9489;50.948;3.114;2024-03-23T01:14:06;8.70;99.90
18721;DHT22;9489;50.948;3.114;2024-03-23T01:16:32;8.70;99.90
18721;DHT22;9489;50.948;3.114;2024-03-23T01:18:58;8.70;99.90
18721;DHT22;9489;50.948;3.114;2024-03-23T01:21:24;8.70;99.90
18721;DHT22;9489;50.948;3.114;2024-03-23T01:23:49;8.70;99.90
18721;DHT22;9489;50.948;3.114;2024-03-23T01:26:15;8.60;99.90
18721;DHT22;9489;50.948;3.114;2024-03-23T01:28:41;8.70;99.90
18721;DHT22;9489;50.948;3.114;2024-03-23T01:31:06;8.60;99.90
18721;DHT22;9489;50.948;3.114;2024-03-23T01:33:32;8.70;99.90
18721;DHT22;9489;50.948;3.114;2024-03-23T01:35:58;8.70;99.90
18721;DHT22;9489;50.948;3.114;2024-03-23T01:38:23;8.70;99.90
18721;DHT22;9489;50.948;3.114;2024-03-23T01:40:49;8.70;99.90
18721;DHT22;9489;50.948;3.114;2024-03-23T01:43:15;8.70;99.90
18721;DHT22;9489;50.948;3.114;2024-03-23T01:45:40;8.70;99.90
18721;DHT22;9489;50.948;3.114;2024-03-23T01:48:06;8.70;99.90
18721;DHT22;9489;50.948;3.114;2024-03-23T01:50:32;8.70;99.90
18721;DHT22;9489;50.948;3.114;2024-03-23T01:53:01;8.60;99.90
18721;DHT22;9489;50.948;3.114;2024-03-23T01:55:28;8.60;99.90
18721;DHT22;9489;50.948;3.114;2024-03-23T01:57:56;8.70;99.90
18721;DHT22;9489;50.948;3.114;2024-03-23T02:00:22;8.70;99.90
18721;DHT22;9489;50.948;3.114;2024-03-23T02:02:48;8.60;99.90
18721;DHT22;9489;50.948;3.114;2024-03-23T02:05:14;8.60;99.90
18721;DHT22;9489;50.948;3.114;2024-03-23T02:07:41;8.50;99.90
18721;DHT22;9489;50.948;3.114;2024-03-23T02:10:07;8.50;99.90
18721;DHT22;9489;50.948;3.114;2024-03-23T02:12:35;8.50;99.90
18721;DHT22;9489;50.948;3.114;2024-03-23T02:15:01;8.50;99.90
18721;DHT22;9489;50.948;3.114;2024-03-23T02:17:27;8.40;99.90
18721;DHT22;9489;50.948;3.114;2024-03-23T02:19:53;8.40;99.90
18721;DHT22;9489;50.948;3.114;2024-03-23T02:22:18;8.30;99.90
18721;DHT22;9489;50.948;3.114;2024-03-23T02:24:44;8.30;99.90
18721;DHT22;9489;50.948;3.114;2024-03-23T02:27:11;8.10;99.90
18721;DHT22;9489;50.948;3.114;2024-03-23T02:29:37;8.10;99.90
18721;DHT22;9489;50.948;3.114;2024-03-23T02:32:03;8.10;99.90
18721;DHT22;9489;50.948;3.114;2024-03-23T02:34:28;8.10;99.90
18721;DHT22;9489;50.948;3.114;2024-03-23T02:36:54;8.10;99.90
18721;DHT22;9489;50.948;3.114;2024-03-23T02:39:19;8.00;99.90
18721;DHT22;9489;50.948;3.114;2024-03-23T02:41:45;8.00;99.90
18721;DHT22;9489;50.948;3.114;2024-03-23T02:44:11;7.90;99.90
18721;DHT22;9489;50.948;3.114;2024-03-23T02:46:39;7.90;99.90
18721;DHT22;9489;50.948;3.114;2024-03-23T02:49:05;7.90;99.90
18721;DHT22;9489;50.948;3.114;2024-03-23T02:51:31;7.80;99.90
18721;DHT22;9489;50.948;3.114;2024-03-23T02:53:57;7.80;99.90
18721;DHT22;9489;50.948;3.114;2024-03-23T02:56:22;7.70;99.90
18721;DHT22;9489;50.948;3.114;2024-03-23T02:58:48;7.70;99.90
18721;DHT22;9489;50.948;3.114;2024-03-23T03:01:14;7.60;99.90
18721;DHT22;9489;50.948;3.114;2024-03-23T03:03:40;7.60;99.90
18721;DHT22;9489;50.948;3.114;2024-03-23T03:06:05;7.50;99.90
18721;DHT22;9489;50.948;3.114;2024-03-23T03:08:31;7.50;99.90
18721;DHT22;9489;50.948;3.114;2024-03-23T03:10:57;7.40;99.90
18721;DHT22;9489;50.948;3.114;2024-03-23T03:13:22;7.40;99.90
18721;DHT22;9489;50.948;3.114;2024-03-23T03:15:48;7.40;99.90
18721;DHT22;9489;50.948;3.114;2024-03-23T03:18:13;7.40;99.90
18721;DHT22;9489;50.948;3.114;2024-03-23T03:20:39;7.30;99.90
18721;DHT22;9489;50.948;3.114;2024-03-23T03:23:06;7.30;99.90
18721;DHT22;9489;50.948;3.114;2024-03-23T03:25:32;7.30;99.90
18721;DHT22;9489;50.948;3.114;2024-03-23T03:27:57;7.30;99.90
18721;DHT22;9489;50.948;3.114;2024-03-23T03:30:23;7.30;99.90
18721;DHT22;9489;50.948;3.114;2024-03-23T03:32:49;7.30;99.90
18721;DHT22;9489;50.948;3.114;2024-03-23T03:35:15;7.30;99.90
18721;DHT22;9489;50.948;3.114;2024-03-23T03:37:41;7.30;99.90
18721;DHT22;9489;50.948;3.114;2024-03-23T03:40:07;7.30;99.90
18721;DHT22;9489;50.948;3.114;2024-03-23T03:42:34;7.30;99.90
18721;DHT22;9489;50.948;3.114;2024-03-23T03:45:00;7.30;99.90
18721;DHT22;9489;50.948;3.114;2024-03-23T03:47:26;7.30;99.90
18721;DHT22;9489;50.948;3.114;2024-03-23T03:49:52;7.30;99.90
18721;DHT22;9489;50.948;3.114;2024-03-23T03:52:17;7.30;99.90
18721;DHT22;9489;50.948;3.114;2024-03-23T03:54:43;7.30;99.90
18721;DHT22;9489;50.948;3.114;2024-03-23T03:57:08;7.30;99.90
18721;DHT22;9489;50.948;3.114;2024-03-23T03:59:34;7.30;99.90
18721;DHT22;9489;50.948;3.114;2024-03-23T04:02:00;7.30;99.90
18721;DHT22;9489;50.948;3.114;2024-03-23T04:04:25;7.30;99.90
18721;DHT22;9489;50.948;3.114;2024-03-23T04:07:01;7.30;99.90
18721;DHT22;9489;50.948;3.114;2024-03-23T04:09:28;7.20;99.90
18721;DHT22;9489;50.948;3.114;2024-03-23T04:11:53;7.20;99.90
18721;DHT22;9489;50.948;3.114;2024-03-23T04:14:19;7.20;99.90
18721;DHT22;9489;50.948;3.114;2024-03-23T04:16:45;7.10;99.90
18721;DHT22;9489;50.948;3.114;2024-03-23T04:19:10;7.10;99.90
18721;DHT22;9489;50.948;3.114;2024-03-23T04:21:37;7.00;99.90
18721;DHT22;9489;50.948;3.114;2024-03-23T04:24:03;7.00;99.90
18721;DHT22;9489;50.948;3.114;2024-03-23T04:26:29;7.00;99.90
18721;DHT22;9489;50.948;3.114;2024-03-23T04:28:55;7.00;99.90
18721;DHT22;9489;50.948;3.114;2024-03-23T04:31:20;7.00;99.90
18721;DHT22;9489;50.948;3.114;2024-03-23T04:33:47;7.00;99.90
18721;DHT22;9489;50.948;3.114;2024-03-23T04:36:13;6.90;99.90
18721;DHT22;9489;50.948;3.114;2024-03-23T04:38:38;6.90;99.90
18721;DHT22;9489;50.948;3.114;2024-03-23T04:41:04;6.90;99.90
18721;DHT22;9489;50.948;3.114;2024-03-23T04:43:30;6.90;99.90
18721;DHT22;9489;50.948;3.114;2024-03-23T04:45:55;6.80;99.90
18721;DHT22;9489;50.948;3.114;2024-03-23T04:48:22;6.90;99.90
18721;DHT22;9489;50.948;3.114;2024-03-23T04:50:48;6.80;99.90
18721;DHT22;9489;50.948;3.114;2024-03-23T04:53:15;6.80;99.90
18721;DHT22;9489;50.948;3.114;2024-03-23T04:55:42;6.80;99.90
18721;DHT22;9489;50.948;3.114;2024-03-23T04:58:08;6.70;99.90
18721;DHT22;9489;50.948;3.114;2024-03-23T05:00:34;6.70;99.90
18721;DHT22;9489;50.948;3.114;2024-03-23T05:03:00;6.70;99.90
18721;DHT22;9489;50.948;3.114;2024-03-23T05:05:25;6.70;99.90
18721;DHT22;9489;50.948;3.114;2024-03-23T05:07:51;6.70;99.90
18721;DHT22;9489;50.948;3.114;2024-03-23T05:10:17;6.70;99.90
18721;DHT22;9489;50.948;3.114;2024-03-23T05:12:42;6.70;99.90
18721;DHT22;9489;50.948;3.114;2024-03-23T05:15:10;6.70;99.90
18721;DHT22;9489;50.948;3.114;2024-03-23T05:17:35;6.70;99.90
18721;DHT22;9489;50.948;3.114;2024-03-23T05:20:03;6.70;99.90
18721;DHT22;9489;50.948;3.114;2024-03-23T05:22:29;6.70;99.90
18721;DHT22;9489;50.948;3.114;2024-03-23T05:24:55;6.70;99.90
18721;DHT22;9489;50.948;3.114;2024-03-23T05:27:21;6.70;99.90
18721;DHT22;9489;50.948;3.114;2024-03-23T05:29:46;6.60;99.90
18721;DHT22;9489;50.948;3.114;2024-03-23T05:32:12;6.60;99.90
18721;DHT22;9489;50.948;3.114;2024-03-23T05:34:38;6.50;99.90
18721;DHT22;9489;50.948;3.114;2024-03-23T05:37:04;6.50;99.90
18721;DHT22;9489;50.948;3.114;2024-03-23T05:39:30;6.50;99.90
18721;DHT22;9489;50.948;3.114;2024-03-23T05:41:55;6.40;99.90
18721;DHT22;9489;50.948;3.114;2024-03-23T05:44:21;6.40;99.90
18721;DHT22;9489;50.948;3.114;2024-03-23T05:46:46;6.40;99.90
18721;DHT22;9489;50.948;3.114;2024-03-23T05:49:14;6.30;99.90
18721;DHT22;9489;50.948;3.114;2024-03-23T05:51:40;6.30;99.90
18721;DHT22;9489;50.948;3.114;2024-03-23T05:54:06;6.30;99.90
18721;DHT22;9489;50.948;3.114;2024-03-23T05:56:33;6.30;99.90
18721;DHT22;9489;50.948;3.114;2024-03-23T05:58:58;6.30;99.90
18721;DHT22;9489;50.948;3.114;2024-03-23T06:01:24;6.20;99.90
18721;DHT22;9489;50.948;3.114;2024-03-23T06:03:50;6.20;99.90
18721;DHT22;9489;50.948;3.114;2024-03-23T06:06:16;6.20;99.90
18721;DHT22;9489;50.948;3.114;2024-03-23T06:08:42;6.20;99.90
18721;DHT22;9489;50.948;3.114;2024-03-23T06:11:07;6.30;99.90
18721;DHT22;9489;50.948;3.114;2024-03-23T06:13:33;6.20;99.90
18721;DHT22;9489;50.948;3.114;2024-03-23T06:16:01;6.30;99.90
18721;DHT22;9489;50.948;3.114;2024-03-23T06:18:26;6.30;99.90
18721;DHT22;9489;50.948;3.114;2024-03-23T06:20:53;6.30;99.90
18721;DHT22;9489;50.948;3.114;2024-03-23T06:23:19;6.30;99.90
18721;DHT22;9489;50.948;3.114;2024-03-23T06:25:46;6.30;99.90
18721;DHT22;9489;50.948;3.114;2024-03-23T06:28:12;6.30;99.90
18721;DHT22;9489;50.948;3.114;2024-03-23T06:30:38;6.40;99.90
18721;DHT22;9489;50.948;3.114;2024-03-23T06:33:03;6.50;99.90
18721;DHT22;9489;50.948;3.114;2024-03-23T06:35:31;6.70;99.90
18721;DHT22;9489;50.948;3.114;2024-03-23T06:37:56;6.80;99.90
18721;DHT22;9489;50.948;3.114;2024-03-23T06:40:23;7.00;99.90
18721;DHT22;9489;50.948;3.114;2024-03-23T06:42:49;7.30;99.90
18721;DHT22;9489;50.948;3.114;2024-03-23T06:45:16;7.40;99.90
18721;DHT22;9489;50.948;3.114;2024-03-23T06:47:42;7.40;99.90
18721;DHT22;9489;50.948;3.114;2024-03-23T06:50:08;7.50;99.90
18721;DHT22;9489;50.948;3.114;2024-03-23T06:52:35;7.30;99.90
18721;DHT22;9489;50.948;3.114;2024-03-23T06:55:01;7.30;99.90
18721;DHT22;9489;50.948;3.114;2024-03-23T06:57:29;7.40;99.90
18721;DHT22;9489;50.948;3.114;2024-03-23T06:59:55;7.50;99.90
18721;DHT22;9489;50.948;3.114;2024-03-23T07:02:21;7.60;99.90
18721;DHT22;9489;50.948;3.114;2024-03-23T07:04:47;7.60;99.90
18721;DHT22;9489;50.948;3.114;2024-03-23T07:07:12;7.60;99.90
18721;DHT22;9489;50.948;3.114;2024-03-23T07:09:38;7.50;99.90
18721;DHT22;9489;50.948;3.114;2024-03-23T07:12:04;7.50;99.90
18721;DHT22;9489;50.948;3.114;2024-03-23T07:14:30;7.50;99.90
18721;DHT22;9489;50.948;3.114;2024-03-23T07:16:55;7.40;99.90
18721;DHT22;9489;50.948;3.114;2024-03-23T07:19:22;7.50;99.90
18721;DHT22;9489;50.948;3.114;2024-03-23T07:21:48;7.60;99.90
18721;DHT22;9489;50.948;3.114;2024-03-23T07:24:14;7.70;99.90
18721;DHT22;9489;50.948;3.114;2024-03-23T07:26:40;7.80;99.90
18721;DHT22;9489;50.948;3.114;2024-03-23T07:29:06;7.80;99.90
18721;DHT22;9489;50.948;3.114;2024-03-23T07:31:32;7.90;99.90
18721;DHT22;9489;50.948;3.114;2024-03-23T07:33:58;8.00;99.90
18721;DHT22;9489;50.948;3.114;2024-03-23T07:36:23;8.20;99.90
18721;DHT22;9489;50.948;3.114;2024-03-23T07:38:50;8.50;99.90
18721;DHT22;9489;50.948;3.114;2024-03-23T07:41:17;8.90;26.30
18721;DHT22;9489;50.948;3.114;2024-03-23T07:43:44;9.00;1.00
18721;DHT22;9489;50.948;3.114;2024-03-23T07:46:10;9.20;1.00
18721;DHT22;9489;50.948;3.114;2024-03-23T07:48:37;9.30;99.90
18721;DHT22;9489;50.948;3.114;2024-03-23T07:51:05;9.30;99.90
18721;DHT22;9489;50.948;3.114;2024-03-23T07:53:35;9.60;67.70
18721;DHT22;9489;50.948;3.114;2024-03-23T07:56:08;9.90;1.00
18721;DHT22;9489;50.948;3.114;2024-03-23T07:58:35;10.30;1.00
18721;DHT22;9489;50.948;3.114;2024-03-23T08:01:06;10.30;1.00
18721;DHT22;9489;50.948;3.114;2024-03-23T08:03:35;10.40;1.00
18721;DHT22;9489;50.948;3.114;2024-03-23T08:06:11;10.80;1.00
18721;DHT22;9489;50.948;3.114;2024-03-23T08:08:36;11.10;99.90
18721;DHT22;9489;50.948;3.114;2024-03-23T08:11:02;11.20;99.90
18721;DHT22;9489;50.948;3.114;2024-03-23T08:13:29;11.50;1.00
18721;DHT22;9489;50.948;3.114;2024-03-23T08:15:58;11.70;1.00
18721;DHT22;9489;50.948;3.114;2024-03-23T08:18:24;11.90;99.90
18721;DHT22;9489;50.948;3.114;2024-03-23T08:21:01;12.10;99.90
18721;DHT22;9489;50.948;3.114;2024-03-23T08:23:32;12.10;1.00
18721;DHT22;9489;50.948;3.114;2024-03-23T08:26:09;12.20;1.00
18721;DHT22;9489;50.948;3.114;2024-03-23T08:28:35;12.30;1.00
18721;DHT22;9489;50.948;3.114;2024-03-23T08:31:03;12.70;1.00
18721;DHT22;9489;50.948;3.114;2024-03-23T08:33:29;13.00;99.90
18721;DHT22;9489;50.948;3.114;2024-03-23T08:35:56;12.70;99.90
18721;DHT22;9489;50.948;3.114;2024-03-23T08:38:26;13.00;99.90
18721;DHT22;9489;50.948;3.114;2024-03-23T08:40:59;13.40;1.00
18721;DHT22;9489;50.948;3.114;2024-03-23T08:43:25;13.30;1.00
18721;DHT22;9489;50.948;3.114;2024-03-23T08:45:51;13.30;1.00
18721;DHT22;9489;50.948;3.114;2024-03-23T08:48:18;13.20;1.00
18721;DHT22;9489;50.948;3.114;2024-03-23T08:50:46;13.50;1.00
18721;DHT22;9489;50.948;3.114;2024-03-23T08:53:12;13.40;1.00
18721;DHT22;9489;50.948;3.114;2024-03-23T08:55:37;12.70;1.00
18721;DHT22;9489;50.948;3.114;2024-03-23T08:58:03;12.60;1.00
18721;DHT22;9489;50.948;3.114;2024-03-23T09:00:30;12.00;1.00
18721;DHT22;9489;50.948;3.114;2024-03-23T09:02:55;11.70;99.90
18721;DHT22;9489;50.948;3.114;2024-03-23T09:05:22;12.20;99.90
18721;DHT22;9489;50.948;3.114;2024-03-23T09:07:49;13.00;1.00
18721;DHT22;9489;50.948;3.114;2024-03-23T09:10:15;13.00;1.00
18721;DHT22;9489;50.948;3.114;2024-03-23T09:12:41;13.20;1.00
18721;DHT22;9489;50.948;3.114;2024-03-23T09:15:06;13.40;1.00
18721;DHT22;9489;50.948;3.114;2024-03-23T09:17:32;13.90;1.00
18721;DHT22;9489;50.948;3.114;2024-03-23T09:19:58;14.40;99.90
18721;DHT22;9489;50.948;3.114;2024-03-23T09:22:23;14.10;1.00
18721;DHT22;9489;50.948;3.114;2024-03-23T09:24:49;13.20;99.90
18721;DHT22;9489;50.948;3.114;2024-03-23T09:27:15;12.90;99.90
18721;DHT22;9489;50.948;3.114;2024-03-23T09:29:40;12.90;99.90
18721;DHT22;9489;50.948;3.114;2024-03-23T09:32:06;12.70;99.90
18721;DHT22;9489;50.948;3.114;2024-03-23T09:34:32;13.30;99.90
18721;DHT22;9489;50.948;3.114;2024-03-23T09:36:58;13.80;16.00
18721;DHT22;9489;50.948;3.114;2024-03-23T09:39:24;14.00;1.00
18721;DHT22;9489;50.948;3.114;2024-03-23T09:41:49;14.30;1.00
18721;DHT22;9489;50.948;3.114;2024-03-23T09:44:15;14.30;1.00
18721;DHT22;9489;50.948;3.114;2024-03-23T09:46:41;14.00;1.00
18721;DHT22;9489;50.948;3.114;2024-03-23T09:49:09;14.10;1.00
18721;DHT22;9489;50.948;3.114;2024-03-23T09:51:36;14.80;1.00
18721;DHT22;9489;50.948;3.114;2024-03-23T09:54:02;15.30;1.00
18721;DHT22;9489;50.948;3.114;2024-03-23T09:56:28;15.70;1.00
18721;DHT22;9489;50.948;3.114;2024-03-23T09:59:03;15.90;1.00
18721;DHT22;9489;50.948;3.114;2024-03-23T10:01:30;15.80;1.00
18721;DHT22;9489;50.948;3.114;2024-03-23T10:03:56;16.00;1.00
18721;DHT22;9489;50.948;3.114;2024-03-23T10:06:22;16.20;1.00
18721;DHT22;9489;50.948;3.114;2024-03-23T10:08:51;16.90;1.00
18721;DHT22;9489;50.948;3.114;2024-03-23T10:11:17;17.00;1.00
18721;DHT22;9489;50.948;3.114;2024-03-23T10:13:43;16.00;1.00
18721;DHT22;9489;50.948;3.114;2024-03-23T10:16:10;14.60;1.00
18721;DHT22;9489;50.948;3.114;2024-03-23T10:18:39;13.60;1.00
18721;DHT22;9489;50.948;3.114;2024-03-23T10:23:34;12.70;1.00
18721;DHT22;9489;50.948;3.114;2024-03-23T10:26:19;12.60;1.00
18721;DHT22;9489;50.948;3.114;2024-03-23T10:31:30;13.70;1.00
18721;DHT22;9489;50.948;3.114;2024-03-23T10:33:56;13.70;1.00
18721;DHT22;9489;50.948;3.114;2024-03-23T10:36:22;13.20;1.00
18721;DHT22;9489;50.948;3.114;2024-03-23T10:38:50;12.40;1.00
18721;DHT22;9489;50.948;3.114;2024-03-23T10:41:16;11.90;23.00
18721;DHT22;9489;50.948;3.114;2024-03-23T10:43:43;12.40;99.90
18721;DHT22;9489;50.948;3.114;2024-03-23T10:46:10;13.20;1.00
18721;DHT22;9489;50.948;3.114;2024-03-23T10:48:35;14.10;1.00
18721;DHT22;9489;50.948;3.114;2024-03-23T10:51:01;15.20;1.00
18721;DHT22;9489;50.948;3.114;2024-03-23T10:53:28;16.40;1.00
18721;DHT22;9489;50.948;3.114;2024-03-23T10:55:55;17.20;99.90
18721;DHT22;9489;50.948;3.114;2024-03-23T10:58:29;17.70;99.90
18721;DHT22;9489;50.948;3.114;2024-03-23T11:00:56;18.00;99.90
18721;DHT22;9489;50.948;3.114;2024-03-23T11:03:36;18.00;99.90
18721;DHT22;9489;50.948;3.114;2024-03-23T11:06:06;17.90;99.90
18721;DHT22;9489;50.948;3.114;2024-03-23T11:08:35;18.10;99.90
18721;DHT22;9489;50.948;3.114;2024-03-23T11:11:19;17.70;99.90
18721;DHT22;9489;50.948;3.114;2024-03-23T11:13:49;18.00;99.90
18721;DHT22;9489;50.948;3.114;2024-03-23T11:16:29;18.00;99.90
18721;DHT22;9489;50.948;3.114;2024-03-23T11:19:38;16.90;99.90
18721;DHT22;9489;50.948;3.114;2024-03-23T11:22:04;16.80;99.90
18721;DHT22;9489;50.948;3.114;2024-03-23T11:24:31;16.20;99.90
18721;DHT22;9489;50.948;3.114;2024-03-23T11:26:57;16.20;99.90
18721;DHT22;9489;50.948;3.114;2024-03-23T11:29:28;16.80;99.90
18721;DHT22;9489;50.948;3.114;2024-03-23T11:31:55;16.80;99.90
18721;DHT22;9489;50.948;3.114;2024-03-23T11:34:21;16.90;99.90
18721;DHT22;9489;50.948;3.114;2024-03-23T11:36:47;17.60;99.90
18721;DHT22;9489;50.948;3.114;2024-03-23T11:39:18;18.10;99.90
18721;DHT22;9489;50.948;3.114;2024-03-23T11:41:51;16.90;99.90
18721;DHT22;9489;50.948;3.114;2024-03-23T11:44:18;15.80;99.90
18721;DHT22;9489;50.948;3.114;2024-03-23T11:46:44;14.70;99.90
18721;DHT22;9489;50.948;3.114;2024-03-23T11:49:26;13.90;99.90
18721;DHT22;9489;50.948;3.114;2024-03-23T11:51:54;13.30;1.00
18721;DHT22;9489;50.948;3.114;2024-03-23T11:54:24;13.30;1.00
18721;DHT22;9489;50.948;3.114;2024-03-23T11:57:04;14.30;1.00
18721;DHT22;9489;50.948;3.114;2024-03-23T11:59:37;15.60;99.90
18721;DHT22;9489;50.948;3.114;2024-03-23T12:02:10;16.70;99.90
18721;DHT22;9489;50.948;3.114;2024-03-23T12:04:37;17.50;99.90
18721;DHT22;9489;50.948;3.114;2024-03-23T12:07:30;17.80;99.90
18721;DHT22;9489;50.948;3.114;2024-03-23T12:10:05;17.20;99.90
18721;DHT22;9489;50.948;3.114;2024-03-23T12:12:34;16.70;99.90
18721;DHT22;9489;50.948;3.114;2024-03-23T12:15:07;15.90;99.90
18721;DHT22;9489;50.948;3.114;2024-03-23T12:17:34;15.10;99.90
18721;DHT22;9489;50.948;3.114;2024-03-23T12:20:00;15.00;99.90
18721;DHT22;9489;50.948;3.114;2024-03-23T12:22:26;15.50;99.90
18721;DHT22;9489;50.948;3.114;2024-03-23T12:24:53;16.40;99.90
18721;DHT22;9489;50.948;3.114;2024-03-23T12:27:18;16.00;99.90
18721;DHT22;9489;50.948;3.114;2024-03-23T12:29:44;15.30;99.90
18721;DHT22;9489;50.948;3.114;2024-03-23T12:32:12;15.20;99.90
18721;DHT22;9489;50.948;3.114;2024-03-23T12:34:38;15.10;99.90
18721;DHT22;9489;50.948;3.114;2024-03-23T12:37:04;15.50;99.90
18721;DHT22;9489;50.948;3.114;2024-03-23T12:39:31;15.60;99.90
18721;DHT22;9489;50.948;3.114;2024-03-23T12:41:57;16.10;99.90
18721;DHT22;9489;50.948;3.114;2024-03-23T12:44:23;16.90;99.90
18721;DHT22;9489;50.948;3.114;2024-03-23T12:46:48;18.00;99.90
18721;DHT22;9489;50.948;3.114;2024-03-23T12:49:14;19.00;99.90
18721;DHT22;9489;50.948;3.114;2024-03-23T12:51:48;19.80;99.90
18721;DHT22;9489;50.948;3.114;2024-03-23T12:54:13;19.50;99.90
18721;DHT22;9489;50.948;3.114;2024-03-23T12:56:39;19.20;99.90
18721;DHT22;9489;50.948;3.114;2024-03-23T12:59:05;19.40;99.90
18721;DHT22;9489;50.948;3.114;2024-03-23T13:01:30;18.80;99.90
18721;DHT22;9489;50.948;3.114;2024-03-23T13:03:56;17.90;99.90
18721;DHT22;9489;50.948;3.114;2024-03-23T13:06:22;16.90;99.90
18721;DHT22;9489;50.948;3.114;2024-03-23T13:08:47;15.70;99.90
18721;DHT22;9489;50.948;3.114;2024-03-23T13:11:15;15.30;99.90
18721;DHT22;9489;50.948;3.114;2024-03-23T13:13:41;15.90;99.90
18721;DHT22;9489;50.948;3.114;2024-03-23T13:16:07;17.00;99.90
18721;DHT22;9489;50.948;3.114;2024-03-23T13:18:33;17.40;99.90
18721;DHT22;9489;50.948;3.114;2024-03-23T13:20:59;17.50;99.90
18721;DHT22;9489;50.948;3.114;2024-03-23T13:23:25;16.60;99.90
18721;DHT22;9489;50.948;3.114;2024-03-23T13:25:55;16.00;99.90
18721;DHT22;9489;50.948;3.114;2024-03-23T13:28:22;15.00;99.90
18721;DHT22;9489;50.948;3.114;2024-03-23T13:30:54;14.10;99.90
18721;DHT22;9489;50.948;3.114;2024-03-23T13:33:20;14.30;99.90
18721;DHT22;9489;50.948;3.114;2024-03-23T13:35:53;15.00;99.90
18721;DHT22;9489;50.948;3.114;2024-03-23T13:38:19;14.40;99.90
18721;DHT22;9489;50.948;3.114;2024-03-23T13:40:56;13.80;99.90
18721;DHT22;9489;50.948;3.114;2024-03-23T13:43:22;13.20;1.00
18721;DHT22;9489;50.948;3.114;2024-03-23T13:45:51;12.80;1.00
18721;DHT22;9489;50.948;3.114;2024-03-23T13:48:19;12.70;13.50
18721;DHT22;9489;50.948;3.114;2024-03-23T13:50:45;13.10;1.00
18721;DHT22;9489;50.948;3.114;2024-03-23T13:53:13;14.00;99.00
18721;DHT22;9489;50.948;3.114;2024-03-23T13:55:48;14.90;1.00
18721;DHT22;9489;50.948;3.114;2024-03-23T13:58:15;14.60;1.00
18721;DHT22;9489;50.948;3.114;2024-03-23T14:00:41;13.90;1.00
18721;DHT22;9489;50.948;3.114;2024-03-23T14:03:10;13.40;1.00
18721;DHT22;9489;50.948;3.114;2024-03-23T14:05:36;13.50;99.90
18721;DHT22;9489;50.948;3.114;2024-03-23T14:08:05;14.80;73.10
18721;DHT22;9489;50.948;3.114;2024-03-23T14:10:30;15.90;1.00
18721;DHT22;9489;50.948;3.114;2024-03-23T14:12:56;16.30;99.90
18721;DHT22;9489;50.948;3.114;2024-03-23T14:15:22;16.90;99.90
18721;DHT22;9489;50.948;3.114;2024-03-23T14:17:47;17.30;99.90
18721;DHT22;9489;50.948;3.114;2024-03-23T14:20:16;17.80;99.90
18721;DHT22;9489;50.948;3.114;2024-03-23T14:22:44;18.00;99.90
18721;DHT22;9489;50.948;3.114;2024-03-23T14:25:10;17.90;99.90
18721;DHT22;9489;50.948;3.114;2024-03-23T14:27:36;18.40;99.90
18721;DHT22;9489;50.948;3.114;2024-03-23T14:30:05;18.00;99.90
18721;DHT22;9489;50.948;3.114;2024-03-23T14:32:31;17.20;99.90
18721;DHT22;9489;50.948;3.114;2024-03-23T14:35:05;16.30;99.90
18721;DHT22;9489;50.948;3.114;2024-03-23T14:37:32;16.10;99.90
18721;DHT22;9489;50.948;3.114;2024-03-23T14:39:58;15.50;99.90
18721;DHT22;9489;50.948;3.114;2024-03-23T14:42:25;15.20;99.90
18721;DHT22;9489;50.948;3.114;2024-03-23T14:44:51;15.70;99.90
18721;DHT22;9489;50.948;3.114;2024-03-23T14:47:18;16.70;99.90
18721;DHT22;9489;50.948;3.114;2024-03-23T14:49:44;17.10;99.90
18721;DHT22;9489;50.948;3.114;2024-03-23T14:52:14;17.00;99.90
18721;DHT22;9489;50.948;3.114;2024-03-23T14:54:40;17.50;99.90
18721;DHT22;9489;50.948;3.114;2024-03-23T14:57:05;17.40;99.90
18721;DHT22;9489;50.948;3.114;2024-03-23T14:59:35;17.60;99.90
18721;DHT22;9489;50.948;3.114;2024-03-23T15:02:00;17.40;99.90
18721;DHT22;9489;50.948;3.114;2024-03-23T15:04:26;17.00;99.90
18721;DHT22;9489;50.948;3.114;2024-03-23T15:06:52;15.80;99.90
18721;DHT22;9489;50.948;3.114;2024-03-23T15:09:17;14.90;99.90
18721;DHT22;9489;50.948;3.114;2024-03-23T15:11:43;14.10;99.90
18721;DHT22;9489;50.948;3.114;2024-03-23T15:14:09;13.70;99.90
18721;DHT22;9489;50.948;3.114;2024-03-23T15:16:36;13.40;99.90
18721;DHT22;9489;50.948;3.114;2024-03-23T15:19:02;13.20;99.90
18721;DHT22;9489;50.948;3.114;2024-03-23T15:21:28;13.10;99.90
18721;DHT22;9489;50.948;3.114;2024-03-23T15:23:53;12.90;99.90
18721;DHT22;9489;50.948;3.114;2024-03-23T15:26:19;12.60;1.00
18721;DHT22;9489;50.948;3.114;2024-03-23T15:28:48;12.50;1.00
18721;DHT22;9489;50.948;3.114;2024-03-23T15:31:23;12.40;1.00
18721;DHT22;9489;50.948;3.114;2024-03-23T15:33:49;12.50;1.00
18721;DHT22;9489;50.948;3.114;2024-03-23T15:36:14;12.50;1.00
18721;DHT22;9489;50.948;3.114;2024-03-23T15:38:40;12.40;1.00
18721;DHT22;9489;50.948;3.114;2024-03-23T15:41:06;12.40;1.00
18721;DHT22;9489;50.948;3.114;2024-03-23T15:43:32;12.40;1.00
18721;DHT22;9489;50.948;3.114;2024-03-23T15:45:59;12.40;1.00
18721;DHT22;9489;50.948;3.114;2024-03-23T15:48:28;12.40;1.00
18721;DHT22;9489;50.948;3.114;2024-03-23T15:50:55;12.40;1.00
18721;DHT22;9489;50.948;3.114;2024-03-23T15:53:21;12.40;1.00
18721;DHT22;9489;50.948;3.114;2024-03-23T15:56:03;12.40;1.00
18721;DHT22;9489;50.948;3.114;2024-03-23T15:58:30;12.50;1.00
18721;DHT22;9489;50.948;3.114;2024-03-23T16:00:58;12.50;1.00
18721;DHT22;9489;50.948;3.114;2024-03-23T16:03:24;12.40;1.00
18721;DHT22;9489;50.948;3.114;2024-03-23T16:06:00;12.30;1.00
18721;DHT22;9489;50.948;3.114;2024-03-23T16:08:26;12.20;1.00
18721;DHT22;9489;50.948;3.114;2024-03-23T16:10:52;12.10;1.00
18721;DHT22;9489;50.948;3.114;2024-03-23T16:13:19;12.10;1.00
18721;DHT22;9489;50.948;3.114;2024-03-23T16:15:46;12.00;36.90
18721;DHT22;9489;50.948;3.114;2024-03-23T16:18:19;11.90;99.90
18721;DHT22;9489;50.948;3.114;2024-03-23T16:23:24;11.60;1.00
18721;DHT22;9489;50.948;3.114;2024-03-23T16:25:51;11.60;1.00
18721;DHT22;9489;50.948;3.114;2024-03-23T16:28:26;11.50;99.90
18721;DHT22;9489;50.948;3.114;2024-03-23T16:31:06;11.50;99.90
18721;DHT22;9489;50.948;3.114;2024-03-23T16:33:33;11.40;99.90
18721;DHT22;9489;50.948;3.114;2024-03-23T16:38:25;11.20;1.00
18721;DHT22;9489;50.948;3.114;2024-03-23T16:43:21;10.80;1.00
18721;DHT22;9489;50.948;3.114;2024-03-23T16:45:55;10.60;99.90
18721;DHT22;9489;50.948;3.114;2024-03-23T16:48:22;10.50;1.00
18721;DHT22;9489;50.948;3.114;2024-03-23T16:50:48;10.50;1.00
18721;DHT22;9489;50.948;3.114;2024-03-23T16:53:14;10.50;1.00
18721;DHT22;9489;50.948;3.114;2024-03-23T16:55:41;10.50;99.90
18721;DHT22;9489;50.948;3.114;2024-03-23T16:58:07;10.50;99.90
18721;DHT22;9489;50.948;3.114;2024-03-23T17:00:34;10.40;1.00
18721;DHT22;9489;50.948;3.114;2024-03-23T17:03:00;10.40;1.00